Time;durP1;ratioP1;P1;durP2;ratioP2;P2;SDS_P1;SDS_P2;PMS_P1;PMS_P2;Temp;Humidity;BMP_temperature;BMP_pressure;BME280_temperature;BME280_humidity;BME280_pressure;Samples;Min_cycle;Max_cycle;Signal;HPM_P1;HPM_P2
2024/01/05 00:00:00;;;;;;;6.13;2.78;;;;;;;4.25;100.00;92763.38;5062455;28;20041;-72
2024/01/05 00:02:27;;;;;;;6.75;3.42;;;;;;;4.23;100.00;92757.69;5065996;28;20045;-72
2024/01/05 00:04:54;;;;;;;8.68;2.50;;;;;;;4.12;100.00;92766.59;5063153;28;20055;-72
2024/01/05 00:07:21;;;;;;;5.43;2.55;;;;;;;4.09;100.00;92769.50;5066314;28;20051;-71
2024/01/05 00:09:48;;;;;;;6.80;2.80;;;;;;;4.05;100.00;92771.63;5063072;28;20098;-71
2024/01/05 00:12:15;;;;;;;5.93;2.47;;;;;;;4.02;100.00;92766.88;5065775;28;20042;-72
2024/01/05 00:14:43;;;;;;;5.88;2.38;;;;;;;4.10;100.00;92773.63;5064734;28;20040;-72
2024/01/05 00:17:10;;;;;;;4.93;2.38;;;;;;;4.09;100.00;92772.03;5061319;28;20607;-72
2024/01/05 00:19:37;;;;;;;4.57;2.10;;;;;;;3.99;100.00;92767.25;5065772;28;20127;-71
2024/01/05 00:22:04;;;;;;;6.38;2.63;;;;;;;4.10;100.00;92782.03;5062751;28;20502;-71
2024/01/05 00:24:31;;;;;;;5.00;2.30;;;;;;;4.07;100.00;92789.25;5063215;28;20045;-71
2024/01/05 00:26:59;;;;;;;7.00;2.97;;;;;;;4.07;100.00;92790.00;5065849;28;20055;-72
2024/01/05 00:29:26;;;;;;;6.03;3.28;;;;;;;4.02;100.00;92787.22;5062903;28;20048;-72
2024/01/05 00:31:54;;;;;;;11.63;5.57;;;;;;;4.10;100.00;92801.56;5061386;28;20139;-72
2024/01/05 00:34:21;;;;;;;9.02;4.45;;;;;;;4.08;100.00;92795.88;5064165;28;20059;-72
2024/01/05 00:36:48;;;;;;;10.23;4.00;;;;;;;4.13;100.00;92801.22;5065029;28;20102;-72
2024/01/05 00:39:16;;;;;;;7.30;3.78;;;;;;;4.17;100.00;92801.66;5066189;28;20037;-73
2024/01/05 00:41:46;;;;;;;11.10;3.60;;;;;;;4.22;100.00;92802.66;5066490;28;20471;-71
2024/01/05 00:44:13;;;;;;;7.38;3.60;;;;;;;4.09;100.00;92787.28;5062821;28;20048;-71
2024/01/05 00:46:40;;;;;;;9.27;4.45;;;;;;;4.10;100.00;92793.94;5065744;28;20486;-72
2024/01/05 00:49:08;;;;;;;8.13;4.20;;;;;;;4.14;100.00;92798.50;5065602;28;20055;-71
2024/01/05 00:51:35;;;;;;;9.65;4.35;;;;;;;4.10;100.00;92799.03;5066220;28;20414;-71
2024/01/05 00:54:07;;;;;;;9.02;3.63;;;;;;;4.23;100.00;92808.56;5060726;28;20043;-71
2024/01/05 00:56:34;;;;;;;6.10;3.95;;;;;;;4.18;100.00;92808.31;5066182;28;20498;-72
2024/01/05 00:59:02;;;;;;;6.32;3.90;;;;;;;4.08;100.00;92795.88;5060675;28;20051;-72
2024/01/05 01:01:29;;;;;;;8.00;3.90;;;;;;;4.03;100.00;92809.13;5065152;28;20499;-72
2024/01/05 01:03:56;;;;;;;6.50;4.22;;;;;;;3.94;100.00;92803.34;5064481;28;20053;-72
2024/01/05 01:06:24;;;;;;;8.20;4.32;;;;;;;3.87;100.00;92805.84;5066098;28;20055;-72
2024/01/05 01:08:51;;;;;;;7.22;4.05;;;;;;;3.85;100.00;92801.91;5062226;28;20438;-72
2024/01/05 01:11:27;;;;;;;11.27;4.05;;;;;;;3.66;100.00;92780.38;5062877;28;20128;-71
2024/01/05 01:13:54;;;;;;;7.65;4.10;;;;;;;3.77;100.00;92792.63;5069066;28;20140;-72
2024/01/05 01:16:21;;;;;;;7.97;3.85;;;;;;;3.70;100.00;92782.38;5065027;28;20074;-72
2024/01/05 01:18:47;;;;;;;6.72;4.28;;;;;;;3.78;100.00;92796.75;5063242;28;20045;-72
2024/01/05 01:21:14;;;;;;;7.20;3.90;;;;;;;3.82;100.00;92797.16;5067848;28;20045;-72
2024/01/05 01:23:43;;;;;;;7.82;4.30;;;;;;;3.98;100.00;92796.19;5065051;28;20052;-72
2024/01/05 01:26:10;;;;;;;6.88;3.90;;;;;;;3.81;100.00;92800.69;5066952;28;20501;-72
2024/01/05 01:28:37;;;;;;;6.22;3.85;;;;;;;3.77;100.00;92795.16;5069128;28;20568;-72
2024/01/05 01:31:04;;;;;;;8.50;4.10;;;;;;;3.84;100.00;92797.78;5069168;28;20049;-72
2024/01/05 01:33:31;;;;;;;7.75;4.22;;;;;;;3.79;100.00;92793.22;5063040;28;20044;-72
2024/01/05 01:35:58;;;;;;;6.97;4.15;;;;;;;3.76;100.00;92795.34;5068419;28;20041;-72
2024/01/05 01:38:25;;;;;;;9.32;4.50;;;;;;;3.76;100.00;92800.41;5068600;28;20056;-72
2024/01/05 01:40:55;;;;;;;7.05;4.28;;;;;;;3.83;100.00;92803.81;5068296;28;20398;-71
2024/01/05 01:43:25;;;;;;;7.88;4.43;;;;;;;3.86;100.00;92799.19;5063482;28;20141;-71
2024/01/05 01:45:53;;;;;;;10.52;6.25;;;;;;;3.80;100.00;92811.81;5065623;28;20822;-71
2024/01/05 01:48:21;;;;;;;11.30;5.40;;;;;;;3.77;100.00;92804.53;5067917;28;20931;-71
2024/01/05 01:50:49;;;;;;;10.85;4.50;;;;;;;3.78;100.00;92811.19;5068671;28;20040;-72
2024/01/05 01:53:19;;;;;;;9.63;4.15;;;;;;;3.74;100.00;92819.19;5067225;28;20445;-72
2024/01/05 01:55:48;;;;;;;8.02;3.97;;;;;;;4.14;100.00;92823.13;5067095;28;20186;-71
2024/01/05 01:58:17;;;;;;;10.93;4.35;;;;;;;3.95;100.00;92830.38;5068161;28;20070;-71
2024/01/05 02:00:45;;;;;;;8.50;4.07;;;;;;;3.89;100.00;92825.97;5067795;28;20063;-71
2024/01/05 02:03:14;;;;;;;9.02;4.18;;;;;;;3.88;100.00;92832.81;5062977;28;20046;-71
2024/01/05 02:05:43;;;;;;;7.90;3.75;;;;;;;3.65;100.00;92809.28;5064586;28;20044;-72
2024/01/05 02:08:10;;;;;;;8.90;4.10;;;;;;;3.85;100.00;92835.72;5067509;28;20079;-72
2024/01/05 02:10:37;;;;;;;8.25;3.00;;;;;;;3.83;100.00;92835.09;5069025;28;20067;-71
2024/01/05 02:13:04;;;;;;;8.63;3.50;;;;;;;3.86;100.00;92839.84;5068742;28;20036;-71
2024/01/05 02:15:32;;;;;;;10.85;4.85;;;;;;;3.71;100.00;92834.75;5061032;28;20058;-71
2024/01/05 02:17:59;;;;;;;8.85;4.35;;;;;;;3.66;100.00;92831.97;5061109;28;20421;-71
2024/01/05 02:20:26;;;;;;;8.80;4.75;;;;;;;3.58;100.00;92832.84;5065432;28;20048;-72
2024/01/05 02:23:01;;;;;;;9.32;4.60;;;;;;;3.66;100.00;92829.41;5067616;28;20091;-72
2024/01/05 02:25:29;;;;;;;8.90;3.92;;;;;;;3.68;100.00;92837.66;5067795;28;20494;-72
2024/01/05 02:27:56;;;;;;;13.85;5.15;;;;;;;3.65;100.00;92838.00;5065113;28;20044;-72
2024/01/05 02:30:23;;;;;;;7.82;3.42;;;;;;;3.63;100.00;92841.69;5067084;28;20080;-72
2024/01/05 02:32:50;;;;;;;6.60;4.03;;;;;;;3.56;100.00;92844.16;5062109;28;20417;-72
2024/01/05 02:35:17;;;;;;;7.75;4.47;;;;;;;3.46;100.00;92837.59;5064898;28;20056;-71
2024/01/05 02:37:44;;;;;;;8.45;4.72;;;;;;;3.51;100.00;92844.66;5067343;28;20044;-72
2024/01/05 02:40:12;;;;;;;8.45;4.75;;;;;;;3.49;100.00;92836.44;5064863;28;20056;-72
2024/01/05 02:42:41;;;;;;;42.90;20.25;;;;;;;3.43;100.00;92842.22;5067735;28;20475;-71
2024/01/05 02:45:08;;;;;;;20.27;10.55;;;;;;;3.33;100.00;92835.66;5067001;28;20048;-72
2024/01/05 02:47:35;;;;;;;22.67;11.82;;;;;;;3.40;100.00;92840.81;5062374;28;20040;-71
2024/01/05 02:50:02;;;;;;;17.60;8.07;;;;;;;3.42;100.00;92838.88;5065450;28;20050;-71
2024/01/05 02:52:29;;;;;;;15.10;8.63;;;;;;;3.49;100.00;92844.06;5065184;28;20673;-71
2024/01/05 02:54:56;;;;;;;13.90;7.65;;;;;;;3.36;100.00;92849.75;5057946;28;20055;-71
2024/01/05 02:57:23;;;;;;;14.30;8.20;;;;;;;3.31;100.00;92857.88;5063461;28;20045;-71
2024/01/05 02:59:51;;;;;;;12.70;7.07;;;;;;;3.33;100.00;92857.69;5066142;28;20055;-71
2024/01/05 03:02:18;;;;;;;11.15;5.80;;;;;;;3.22;100.00;92851.31;5062029;28;20040;-71
2024/01/05 03:04:45;;;;;;;11.52;6.75;;;;;;;3.13;100.00;92849.78;5065376;28;20400;-71
2024/01/05 03:07:12;;;;;;;9.50;5.53;;;;;;;3.13;100.00;92850.59;5067238;28;20083;-71
2024/01/05 03:09:39;;;;;;;15.20;8.30;;;;;;;3.20;100.00;92858.31;5063339;28;20078;-71
2024/01/05 03:12:07;;;;;;;14.65;8.75;;;;;;;3.20;100.00;92861.63;5066767;28;20044;-71
2024/01/05 03:14:34;;;;;;;14.52;8.05;;;;;;;3.23;100.00;92869.88;5064891;28;20056;-71
2024/01/05 03:17:03;;;;;;;12.30;7.03;;;;;;;3.28;100.00;92868.38;5062532;28;20055;-71
2024/01/05 03:19:30;;;;;;;15.55;7.68;;;;;;;3.27;100.00;92871.88;5058182;28;20056;-71
2024/01/05 03:21:57;;;;;;;14.77;8.63;;;;;;;3.20;100.00;92868.47;5063905;28;20048;-71
2024/01/05 03:24:24;;;;;;;32.53;16.67;;;;;;;3.36;100.00;92875.13;5066566;28;20052;-71
2024/01/05 03:26:51;;;;;;;32.67;16.90;;;;;;;3.36;100.00;92887.03;5060756;28;20045;-71
2024/01/05 03:29:18;;;;;;;21.05;11.73;;;;;;;3.32;100.00;92889.94;5062280;28;20387;-71
2024/01/05 03:31:45;;;;;;;39.35;20.52;;;;;;;3.20;100.00;92866.69;5061462;28;20052;-71
2024/01/05 03:34:14;;;;;;;23.27;12.68;;;;;;;3.36;100.00;92894.63;5064424;28;20441;-71
2024/01/05 03:36:42;;;;;;;16.95;10.68;;;;;;;3.06;100.00;92875.84;5066801;28;20052;-71
2024/01/05 03:39:09;;;;;;;17.13;8.35;;;;;;;3.13;100.00;92900.56;5064677;28;20814;-71
2024/01/05 03:41:36;;;;;;;13.10;8.07;;;;;;;3.06;100.00;92903.78;5058338;28;20387;-71
2024/01/05 03:44:04;;;;;;;13.27;6.07;;;;;;;3.05;100.00;92906.47;5064555;28;20056;-71
2024/01/05 03:46:31;;;;;;;15.77;9.82;;;;;;;3.07;100.00;92905.34;5057773;28;20082;-72
2024/01/05 03:48:58;;;;;;;20.80;13.23;;;;;;;3.03;100.00;92905.88;5066143;28;20048;-72
2024/01/05 03:51:26;;;;;;;15.60;9.38;;;;;;;2.97;100.00;92909.09;5062435;28;20057;-72
2024/01/05 03:53:53;;;;;;;13.32;7.97;;;;;;;2.98;100.00;92903.06;5065910;28;20057;-72
2024/01/05 03:56:20;;;;;;;10.80;7.47;;;;;;;3.04;100.00;92908.25;5061654;28;20084;-72
2024/01/05 03:58:47;;;;;;;10.73;6.40;;;;;;;3.07;100.00;92912.19;5065619;28;20055;-72
2024/01/05 04:01:14;;;;;;;9.80;7.10;;;;;;;3.08;100.00;92918.84;5057706;28;20072;-72
2024/01/05 04:03:41;;;;;;;11.18;6.85;;;;;;;3.08;100.00;92916.28;5063720;28;20055;-71
2024/01/05 04:06:08;;;;;;;13.95;6.47;;;;;;;2.99;100.00;92913.03;5063324;28;20644;-71
2024/01/05 04:08:39;;;;;;;11.40;6.63;;;;;;;3.05;100.00;92909.81;5066009;28;20048;-71
2024/01/05 04:11:06;;;;;;;13.73;8.98;;;;;;;3.00;100.00;92907.00;5062609;28;20044;-72
2024/01/05 04:13:34;;;;;;;12.95;7.95;;;;;;;3.03;100.00;92914.28;5063390;28;20041;-72
2024/01/05 04:16:02;;;;;;;14.27;7.88;;;;;;;3.10;100.00;92914.38;5062547;28;20052;-72
2024/01/05 04:18:30;;;;;;;15.85;7.20;;;;;;;3.06;100.00;92913.94;5062611;28;20074;-72
2024/01/05 04:20:57;;;;;;;12.85;6.88;;;;;;;3.04;100.00;92905.72;5066288;28;20044;-72
2024/01/05 04:23:24;;;;;;;9.75;6.10;;;;;;;3.05;100.00;92897.13;5065897;28;20048;-71
2024/01/05 04:25:52;;;;;;;10.50;5.80;;;;;;;3.19;100.00;92900.66;5064604;28;20045;-71
2024/01/05 04:28:20;;;;;;;10.02;5.70;;;;;;;3.20;100.00;92909.06;5061185;28;20059;-71
2024/01/05 04:30:47;;;;;;;12.68;5.53;;;;;;;3.17;100.00;92915.28;5064090;28;20087;-71
2024/01/05 04:33:14;;;;;;;10.63;4.72;;;;;;;3.13;100.00;92916.56;5061572;28;20130;-71
2024/01/05 04:35:41;;;;;;;9.85;4.88;;;;;;;3.11;100.00;92920.25;5059344;28;20410;-71
2024/01/05 04:38:08;;;;;;;8.45;4.63;;;;;;;3.15;100.00;92924.03;5063034;28;20052;-71
2024/01/05 04:40:35;;;;;;;10.15;5.50;;;;;;;3.14;100.00;92922.44;5063386;28;20055;-71
2024/01/05 04:43:04;;;;;;;11.48;5.60;;;;;;;3.17;100.00;92927.16;5058674;28;20045;-71
2024/01/05 04:45:31;;;;;;;14.60;6.35;;;;;;;3.16;100.00;92923.84;5066136;28;20520;-71
2024/01/05 04:47:58;;;;;;;13.10;6.00;;;;;;;3.07;100.00;92935.81;5064259;28;20041;-71
2024/01/05 04:50:25;;;;;;;11.93;6.53;;;;;;;3.07;100.00;92935.03;5068260;28;20056;-71
2024/01/05 04:52:54;;;;;;;12.15;7.72;;;;;;;3.02;100.00;92935.50;5065462;28;20044;-71
2024/01/05 04:55:21;;;;;;;12.88;6.93;;;;;;;2.74;100.00;92900.50;5069707;28;20044;-70
2024/01/05 04:57:48;;;;;;;9.93;6.13;;;;;;;2.95;100.00;92939.69;5063857;28;20834;-71
2024/01/05 05:00:23;;;;;;;17.20;8.60;;;;;;;2.93;100.00;92951.78;5067225;28;20040;-71
2024/01/05 05:02:50;;;;;;;10.48;7.50;;;;;;;2.76;100.00;92940.94;5066353;28;20137;-71
2024/01/05 05:05:17;;;;;;;15.82;10.00;;;;;;;2.56;100.00;92927.91;5061020;28;20056;-71
2024/01/05 05:07:44;;;;;;;21.30;11.82;;;;;;;2.78;100.00;92957.56;5069062;28;20135;-71
2024/01/05 05:10:11;;;;;;;18.40;11.73;;;;;;;2.78;100.00;92961.88;5068851;28;20049;-71
2024/01/05 05:12:38;;;;;;;22.20;11.65;;;;;;;2.80;100.00;92963.28;5066760;28;20045;-71
2024/01/05 05:15:07;;;;;;;19.60;11.55;;;;;;;2.73;100.00;92957.28;5061400;28;20047;-71
2024/01/05 05:17:35;;;;;;;21.52;12.15;;;;;;;2.89;100.00;92973.34;5067771;28;20048;-71
2024/01/05 05:20:03;;;;;;;19.35;10.70;;;;;;;2.88;100.00;92975.09;5065889;28;20055;-71
2024/01/05 05:22:30;;;;;;;26.52;16.35;;;;;;;2.63;100.00;92975.25;5065132;28;20048;-71
2024/01/05 05:24:57;;;;;;;40.90;23.83;;;;;;;2.47;100.00;92975.31;5066280;28;20056;-71
2024/01/05 05:27:24;;;;;;;34.08;24.23;;;;;;;2.34;100.00;92986.00;5067956;28;20040;-71
2024/01/05 05:29:51;;;;;;;28.98;21.35;;;;;;;2.20;100.00;92985.72;5065940;28;20127;-71
2024/01/05 05:32:18;;;;;;;43.13;30.15;;;;;;;1.86;100.00;92989.31;5068520;28;20527;-71
2024/01/05 05:34:46;;;;;;;41.83;28.25;;;;;;;1.99;100.00;92981.22;5064531;28;20132;-71
2024/01/05 05:37:13;;;;;;;73.43;45.03;;;;;;;1.67;100.00;92991.22;5066341;28;20049;-71
2024/01/05 05:39:40;;;;;;;58.20;34.63;;;;;;;1.83;100.00;92990.44;5064081;28;20061;-71
2024/01/05 05:42:07;;;;;;;60.90;39.70;;;;;;;1.52;100.00;92991.09;5066803;28;20044;-71
2024/01/05 05:44:34;;;;;;;58.42;38.30;;;;;;;1.33;100.00;92998.06;5068736;28;20067;-72
2024/01/05 05:47:01;;;;;;;67.63;40.80;;;;;;;0.82;100.00;92995.63;5063581;28;20044;-71
2024/01/05 05:49:27;;;;;;;75.85;36.60;;;;;;;0.38;100.00;92996.63;5065052;28;20051;-72
2024/01/05 05:51:55;;;;;;;60.63;36.10;;;;;;;0.46;100.00;92998.38;5067756;28;20045;-72
2024/01/05 05:54:22;;;;;;;61.88;34.85;;;;;;;0.46;100.00;92999.16;5066146;28;20056;-72
2024/01/05 05:56:49;;;;;;;60.55;33.30;;;;;;;0.10;100.00;93007.69;5066756;28;20939;-72
2024/01/05 05:59:16;;;;;;;58.42;35.20;;;;;;;0.25;100.00;93007.94;5067645;28;20057;-72
2024/01/05 06:01:44;;;;;;;59.78;35.95;;;;;;;0.18;100.00;93013.75;5066292;28;20118;-72
2024/01/05 06:04:13;;;;;;;60.97;36.42;;;;;;;0.21;100.00;93018.50;5061662;28;20136;-72
2024/01/05 06:06:40;;;;;;;61.35;31.80;;;;;;;-0.05;100.00;93012.53;5067552;28;20513;-71
2024/01/05 06:09:15;;;;;;;96.90;42.72;;;;;;;-0.08;100.00;93002.75;5066593;28;20063;-71
2024/01/05 06:11:41;;;;;;;87.68;37.03;;;;;;;-0.14;100.00;93023.50;5063427;28;20076;-74
2024/01/05 06:14:08;;;;;;;91.43;47.13;;;;;;;-0.17;100.00;93014.53;5067569;28;20049;-72
2024/01/05 06:16:35;;;;;;;78.20;36.60;;;;;;;-0.32;100.00;93021.03;5067645;28;20048;-71
2024/01/05 06:19:02;;;;;;;69.47;31.88;;;;;;;-0.70;100.00;93014.47;5064335;28;20052;-72
2024/01/05 06:21:29;;;;;;;62.95;30.92;;;;;;;-0.56;100.00;93015.66;5063814;28;20056;-72
2024/01/05 06:23:56;;;;;;;81.72;35.25;;;;;;;-0.66;100.00;93025.06;5060320;28;20048;-74
2024/01/05 06:26:25;;;;;;;73.25;36.17;;;;;;;-0.13;100.00;93022.59;5061738;28;20048;-75
2024/01/05 06:28:51;;;;;;;69.22;35.85;;;;;;;0.10;100.00;93022.06;5051783;28;20056;-72
2024/01/05 06:31:18;;;;;;;74.80;37.20;;;;;;;0.55;100.00;93020.19;5049641;28;20413;-72
2024/01/05 06:33:45;;;;;;;71.28;36.20;;;;;;;0.97;100.00;93031.22;5053605;28;20055;-72
2024/01/05 06:36:15;;;;;;;68.53;34.10;;;;;;;0.95;100.00;93024.72;5055350;28;20063;-72
2024/01/05 06:38:42;;;;;;;64.80;36.13;;;;;;;1.08;100.00;93037.72;5053067;28;20053;-72
2024/01/05 06:41:09;;;;;;;70.05;37.30;;;;;;;1.13;100.00;93035.53;5052779;28;20044;-72
2024/01/05 06:43:37;;;;;;;65.28;37.50;;;;;;;1.36;100.00;93041.72;5050366;28;20049;-72
2024/01/05 06:46:04;;;;;;;56.78;31.05;;;;;;;1.38;100.00;93030.47;5057095;28;20052;-72
2024/01/05 06:48:34;;;;;;;68.40;32.50;;;;;;;1.35;100.00;93030.00;5057748;28;20084;-72
2024/01/05 06:51:01;;;;;;;52.35;27.25;;;;;;;1.00;100.00;93035.16;5050037;28;20049;-72
2024/01/05 06:53:28;;;;;;;54.10;26.85;;;;;;;0.86;100.00;93031.50;5055862;28;20049;-72
2024/01/05 06:55:55;;;;;;;62.40;29.70;;;;;;;1.04;100.00;93037.25;5049714;28;20041;-72
2024/01/05 06:58:23;;;;;;;57.20;29.63;;;;;;;1.17;100.00;93030.94;5047104;28;20064;-71
2024/01/05 07:00:52;;;;;;;51.10;29.45;;;;;;;1.30;100.00;93038.06;5049451;28;20091;-71
2024/01/05 07:03:18;;;;;;;71.70;34.53;;;;;;;1.14;100.00;93043.88;5054367;28;20845;-71
2024/01/05 07:05:48;;;;;;;73.35;37.67;;;;;;;1.11;100.00;93019.69;5055418;28;20055;-72
2024/01/05 07:08:15;;;;;;;221.77;65.43;;;;;;;0.94;100.00;93039.13;5054917;28;20054;-71
2024/01/05 07:10:42;;;;;;;77.22;37.92;;;;;;;0.64;100.00;93041.25;5048677;28;20061;-71
2024/01/05 07:13:09;;;;;;;88.43;43.92;;;;;;;0.83;100.00;93026.78;5051751;28;20064;-72
2024/01/05 07:15:36;;;;;;;106.95;47.90;;;;;;;0.90;100.00;93030.25;5049467;28;20061;-72
2024/01/05 07:18:05;;;;;;;104.68;46.72;;;;;;;0.69;100.00;93020.56;5048728;28;20050;-72
2024/01/05 07:20:33;;;;;;;90.72;47.13;;;;;;;0.96;100.00;93031.41;5050821;28;20137;-72
2024/01/05 07:23:00;;;;;;;141.15;56.17;;;;;;;1.10;100.00;93032.53;5051333;28;20045;-72
2024/01/05 07:25:27;;;;;;;88.32;43.28;;;;;;;0.88;100.00;93037.22;5047845;28;20107;-72
2024/01/05 07:27:54;;;;;;;86.30;41.28;;;;;;;0.64;100.00;93036.97;5050004;28;20505;-71
2024/01/05 07:30:22;;;;;;;66.35;37.30;;;;;;;0.92;100.00;93031.69;5049944;28;20037;-72
2024/01/05 07:32:49;;;;;;;67.20;37.67;;;;;;;1.23;100.00;93037.09;5053021;28;20040;-72
2024/01/05 07:35:17;;;;;;;74.25;41.63;;;;;;;1.40;100.00;93021.00;5056482;28;20048;-72
2024/01/05 07:37:46;;;;;;;83.05;48.78;;;;;;;1.75;100.00;93025.09;5054062;28;20045;-72
2024/01/05 07:40:13;;;;;;;118.07;61.13;;;;;;;2.23;100.00;93036.06;5048519;28;20072;-72
2024/01/05 07:42:41;;;;;;;98.22;61.70;;;;;;;2.34;100.00;93039.22;5054684;28;20055;-72
2024/01/05 07:45:09;;;;;;;95.85;59.05;;;;;;;2.40;100.00;93039.38;5048851;28;20494;-72
2024/01/05 07:47:35;;;;;;;99.88;62.20;;;;;;;2.40;100.00;93039.38;5048399;28;20053;-71
2024/01/05 07:50:04;;;;;;;102.80;63.70;;;;;;;2.57;100.00;93057.06;5049461;28;20045;-71
2024/01/05 07:52:32;;;;;;;108.47;62.20;;;;;;;2.59;100.00;93044.22;5048464;28;20162;-71
2024/01/05 07:54:59;;;;;;;115.97;67.55;;;;;;;2.52;100.00;93044.88;5048109;28;20063;-71
2024/01/05 07:57:26;;;;;;;118.55;70.40;;;;;;;2.49;100.00;93047.72;5050056;28;20059;-71
2024/01/05 07:59:53;;;;;;;115.65;64.13;;;;;;;2.31;100.00;93052.25;5048051;28;20788;-72
2024/01/05 08:02:19;;;;;;;151.18;83.15;;;;;;;2.31;100.00;93045.41;5048243;28;20052;-71
2024/01/05 08:04:46;;;;;;;160.68;88.10;;;;;;;1.98;100.00;93053.06;5055701;28;20059;-71
2024/01/05 08:07:13;;;;;;;153.32;89.30;;;;;;;2.02;100.00;93045.94;5053177;28;20052;-71
2024/01/05 08:09:43;;;;;;;163.93;94.05;;;;;;;2.03;100.00;93050.06;5049174;28;20053;-71
2024/01/05 08:12:10;;;;;;;149.48;83.72;;;;;;;1.42;100.00;93053.72;5049543;28;20067;-71
2024/01/05 08:14:38;;;;;;;118.20;63.78;;;;;;;1.41;100.00;93042.03;5050260;28;20490;-71
2024/01/05 08:17:05;;;;;;;115.78;66.90;;;;;;;1.68;100.00;93050.25;5052385;28;20123;-71
2024/01/05 08:19:32;;;;;;;102.53;56.72;;;;;;;1.35;100.00;93052.78;5050904;28;20047;-71
2024/01/05 08:21:59;;;;;;;97.18;55.17;;;;;;;1.62;100.00;93044.06;5053288;28;20052;-71
2024/01/05 08:24:27;;;;;;;88.70;47.75;;;;;;;1.84;100.00;93055.31;5054941;28;20048;-71
2024/01/05 08:26:55;;;;;;;100.88;51.25;;;;;;;2.04;100.00;93039.75;5053734;28;20052;-71
2024/01/05 08:29:22;;;;;;;97.07;51.65;;;;;;;2.20;100.00;93041.50;5055917;28;20398;-71
2024/01/05 08:31:49;;;;;;;108.22;50.33;;;;;;;2.05;100.00;93055.75;5053229;28;20056;-71
2024/01/05 08:34:16;;;;;;;101.35;53.55;;;;;;;2.10;100.00;93054.34;5054724;28;20484;-71
2024/01/05 08:36:43;;;;;;;98.30;43.97;;;;;;;1.93;100.00;93047.69;5052424;28;20049;-71
2024/01/05 08:39:11;;;;;;;90.60;46.05;;;;;;;1.87;100.00;93052.44;5053341;28;20053;-71
2024/01/05 08:41:38;;;;;;;96.68;49.45;;;;;;;2.13;100.00;93048.16;5055328;28;20067;-71
2024/01/05 08:44:06;;;;;;;99.05;47.22;;;;;;;2.13;100.00;93043.09;5053180;28;20143;-71
2024/01/05 08:46:33;;;;;;;104.65;51.92;;;;;;;2.33;100.00;93047.78;5056461;28;20053;-71
2024/01/05 08:49:00;;;;;;;111.22;56.15;;;;;;;2.36;100.00;93038.09;5052371;28;20054;-71
2024/01/05 08:51:27;;;;;;;103.28;49.92;;;;;;;2.35;100.00;93033.19;5053016;28;20421;-71
2024/01/05 08:53:55;;;;;;;93.20;48.17;;;;;;;2.65;100.00;93041.78;5053603;28;20489;-71
2024/01/05 08:56:22;;;;;;;100.38;52.88;;;;;;;2.91;100.00;93032.31;5052116;28;20044;-71
2024/01/05 08:58:49;;;;;;;90.65;47.75;;;;;;;3.26;100.00;93020.06;5053389;28;20481;-71
2024/01/05 09:01:17;;;;;;;88.13;49.90;;;;;;;3.60;100.00;93013.00;5053146;28;20076;-71
2024/01/05 09:03:44;;;;;;;90.45;49.00;;;;;;;3.82;100.00;93021.56;5054931;28;20049;-72
2024/01/05 09:06:11;;;;;;;94.88;52.45;;;;;;;3.98;100.00;93010.44;5054041;28;20183;-71
2024/01/05 09:08:41;;;;;;;108.85;63.70;;;;;;;4.08;100.00;93007.63;5051275;28;20106;-71
2024/01/05 09:11:10;;;;;;;113.15;70.82;;;;;;;4.24;100.00;93003.34;5051731;28;20074;-71
2024/01/05 09:13:37;;;;;;;97.90;56.08;;;;;;;4.13;100.00;92974.09;5052928;28;20060;-71
2024/01/05 09:16:04;;;;;;;64.57;40.38;;;;;;;4.68;100.00;92999.97;5052694;28;20059;-71
2024/01/05 09:18:35;;;;;;;78.32;44.88;;;;;;;5.07;100.00;93003.13;5050706;28;20127;-71
2024/01/05 09:21:06;;;;;;;21.23;11.35;;;;;;;5.60;100.00;93001.25;5053303;28;20053;-71
2024/01/05 09:23:33;;;;;;;12.63;5.47;;;;;;;6.19;100.00;93009.53;5052291;28;20509;-71
2024/01/05 09:26:00;;;;;;;8.27;3.42;;;;;;;6.68;100.00;93009.56;5050730;28;20081;-71
2024/01/05 09:28:27;;;;;;;9.48;3.78;;;;;;;7.07;100.00;93012.44;5050776;28;20052;-72
2024/01/05 09:30:54;;;;;;;12.52;3.65;;;;;;;7.34;100.00;93018.41;5055197;28;20055;-71
2024/01/05 09:33:21;;;;;;;13.57;5.05;;;;;;;7.50;100.00;93008.78;5050694;28;20056;-71
2024/01/05 09:35:49;;;;;;;12.23;4.43;;;;;;;7.62;100.00;92999.56;5058690;28;20047;-71
2024/01/05 09:38:16;;;;;;;9.07;5.03;;;;;;;7.86;100.00;93032.38;5053346;28;20048;-72
2024/01/05 09:40:43;;;;;;;8.18;3.15;;;;;;;7.97;100.00;93039.47;5051643;28;20041;-71
2024/01/05 09:43:12;;;;;;;9.90;4.13;;;;;;;8.08;100.00;93045.78;5051131;28;20056;-71
2024/01/05 09:45:39;;;;;;;13.93;8.60;;;;;;;8.19;100.00;93039.25;5053230;28;20567;-71
2024/01/05 09:48:09;;;;;;;25.73;16.48;;;;;;;8.24;100.00;93052.25;5052337;28;20417;-71
2024/01/05 09:50:37;;;;;;;34.90;21.63;;;;;;;8.37;100.00;93045.53;5051698;28;20128;-71
2024/01/05 09:53:09;;;;;;;63.38;41.92;;;;;;;8.37;100.00;93035.28;5054118;28;20057;-71
2024/01/05 09:55:36;;;;;;;33.60;20.25;;;;;;;8.52;100.00;93047.91;5051645;28;20063;-71
2024/01/05 09:58:05;;;;;;;73.38;42.92;;;;;;;7.45;100.00;93047.69;5050553;28;20096;-71
2024/01/05 10:00:34;;;;;;;72.38;46.75;;;;;;;6.47;100.00;93046.19;5051546;28;20494;-71
2024/01/05 10:03:09;;;;;;;78.22;47.38;;;;;;;5.46;100.00;93033.47;5053255;28;20045;-71
2024/01/05 10:05:36;;;;;;;81.63;48.78;;;;;;;5.32;100.00;93030.78;5054967;28;20493;-71
2024/01/05 10:08:06;;;;;;;88.72;55.67;;;;;;;5.31;100.00;93030.97;5053808;28;20127;-71
2024/01/05 10:10:47;;;;;;;87.95;53.03;;;;;;;5.13;100.00;93013.56;5050950;28;20095;-71
2024/01/05 10:13:14;;;;;;;85.45;53.58;;;;;;;5.38;100.00;93010.66;5051979;28;20446;-71
2024/01/05 10:15:53;;;;;;;91.88;56.95;;;;;;;5.50;100.00;92988.81;5049537;28;20055;-71
2024/01/05 10:18:21;;;;;;;94.95;53.75;;;;;;;5.69;100.00;93001.91;5046346;28;20059;-71
2024/01/05 10:20:48;;;;;;;87.38;51.95;;;;;;;5.92;100.00;92995.81;5050342;28;20055;-71
2024/01/05 10:23:16;;;;;;;103.13;56.92;;;;;;;6.40;100.00;92998.44;5051190;28;20051;-71
2024/01/05 10:25:46;;;;;;;88.25;52.28;;;;;;;6.71;100.00;93005.84;5051307;28;20413;-71
2024/01/05 10:28:25;;;;;;;80.40;45.67;;;;;;;6.90;100.00;92984.69;5049833;28;20494;-71
2024/01/05 10:30:53;;;;;;;51.65;26.95;;;;;;;7.38;100.00;93005.22;5050128;28;20048;-71
2024/01/05 10:33:20;;;;;;;17.65;8.50;;;;;;;7.89;100.00;93003.88;5054112;28;20049;-72
2024/01/05 10:35:47;;;;;;;17.42;7.43;;;;;;;8.38;100.00;92995.94;5050347;28;20482;-71
2024/01/05 10:38:16;;;;;;;11.25;4.70;;;;;;;8.83;100.00;93010.56;5051142;28;20480;-71
2024/01/05 10:40:43;;;;;;;7.03;3.22;;;;;;;9.10;100.00;93010.47;5049299;28;20139;-71
2024/01/05 10:43:11;;;;;;;6.57;2.60;;;;;;;9.35;98.20;92999.47;5050582;28;20052;-72
2024/01/05 10:45:40;;;;;;;8.15;2.65;;;;;;;9.43;94.82;93001.00;5052621;28;20057;-72
2024/01/05 10:48:11;;;;;;;6.00;2.58;;;;;;;9.43;93.59;93001.00;5053611;28;20044;-72
2024/01/05 10:50:41;;;;;;;4.57;2.13;;;;;;;9.51;89.63;93007.66;5049558;28;20045;-72
2024/01/05 10:53:08;;;;;;;5.85;2.08;;;;;;;9.46;90.36;93003.97;5050506;28;20395;-72
2024/01/05 10:55:38;;;;;;;5.70;1.90;;;;;;;9.57;88.25;93007.63;5052428;28;20053;-72
2024/01/05 10:58:07;;;;;;;3.35;1.70;;;;;;;9.62;89.80;93009.53;5055226;28;20040;-72
2024/01/05 11:00:34;;;;;;;5.78;2.22;;;;;;;9.52;90.25;92991.28;5051924;28;20056;-71
2024/01/05 11:03:11;;;;;;;20.48;9.15;;;;;;;9.62;89.15;92992.41;5050145;28;20040;-71
2024/01/05 11:05:42;;;;;;;5.35;1.83;;;;;;;9.76;85.89;92998.22;5053062;28;20501;-72
2024/01/05 11:08:17;;;;;;;16.35;7.70;;;;;;;9.81;85.89;92989.09;5051055;28;20040;-71
2024/01/05 11:10:58;;;;;;;25.33;11.38;;;;;;;9.97;86.21;92987.78;5055436;28;20063;-72
2024/01/05 11:13:41;;;;;;;31.95;14.32;;;;;;;10.02;85.69;92975.09;5050347;28;20044;-72
2024/01/05 11:16:25;;;;;;;18.77;8.80;;;;;;;10.25;84.79;92981.41;5049125;28;20040;-72
2024/01/05 11:19:11;;;;;;;18.98;6.53;;;;;;;10.44;82.85;92984.78;5057232;28;20167;-72
2024/01/05 11:21:47;;;;;;;18.05;8.10;;;;;;;10.53;82.48;92977.59;5051431;28;20052;-71
2024/01/05 11:24:15;;;;;;;30.25;14.85;;;;;;;10.59;79.43;92978.53;5051783;28;20787;-72